sensor_id;sensor_type;location;lat;lon;timestamp;P1;durP1;ratioP1;P2;durP2;ratioP2
7571;SDS011;3827;49.928;8.548;2022-07-29T00:01:07;2.95;;;1.42;;
7571;SDS011;3827;49.928;8.548;2022-07-29T00:03:34;5.28;;;1.48;;
7571;SDS011;3827;49.928;8.548;2022-07-29T00:06:01;4.53;;;1.50;;
7571;SDS011;3827;49.928;8.548;2022-07-29T00:08:28;5.33;;;1.60;;
7571;SDS011;3827;49.928;8.548;2022-07-29T00:10:54;2.13;;;1.50;;
7571;SDS011;3827;49.928;8.548;2022-07-29T00:13:23;4.20;;;1.90;;
7571;SDS011;3827;49.928;8.548;2022-07-29T00:15:49;4.32;;;1.50;;
7571;SDS011;3827;49.928;8.548;2022-07-29T00:18:16;3.92;;;1.63;;
7571;SDS011;3827;49.928;8.548;2022-07-29T00:20:43;2.30;;;1.40;;
7571;SDS011;3827;49.928;8.548;2022-07-29T00:23:10;2.72;;;1.60;;
7571;SDS011;3827;49.928;8.548;2022-07-29T00:25:37;3.75;;;1.38;;
7571;SDS011;3827;49.928;8.548;2022-07-29T00:28:04;3.85;;;1.40;;
7571;SDS011;3827;49.928;8.548;2022-07-29T00:30:32;4.63;;;1.40;;
7571;SDS011;3827;49.928;8.548;2022-07-29T00:32:59;2.15;;;1.50;;
7571;SDS011;3827;49.928;8.548;2022-07-29T00:35:26;2.50;;;1.35;;
7571;SDS011;3827;49.928;8.548;2022-07-29T00:38:10;3.55;;;1.70;;
7571;SDS011;3827;49.928;8.548;2022-07-29T00:40:37;2.90;;;1.40;;
7571;SDS011;3827;49.928;8.548;2022-07-29T00:43:04;4.13;;;1.40;;
7571;SDS011;3827;49.928;8.548;2022-07-29T00:45:33;3.05;;;1.42;;
7571;SDS011;3827;49.928;8.548;2022-07-29T00:48:00;2.37;;;1.40;;
7571;SDS011;3827;49.928;8.548;2022-07-29T00:50:28;2.83;;;1.52;;
7571;SDS011;3827;49.928;8.548;2022-07-29T00:52:55;3.45;;;1.30;;
7571;SDS011;3827;49.928;8.548;2022-07-29T00:55:22;1.73;;;1.30;;
7571;SDS011;3827;49.928;8.548;2022-07-29T00:57:49;1.95;;;1.40;;
7571;SDS011;3827;49.928;8.548;2022-07-29T01:00:17;3.45;;;1.33;;
7571;SDS011;3827;49.928;8.548;2022-07-29T01:02:47;4.28;;;1.60;;
7571;SDS011;3827;49.928;8.548;2022-07-29T01:05:14;2.03;;;1.20;;
7571;SDS011;3827;49.928;8.548;2022-07-29T01:07:43;2.72;;;1.45;;
7571;SDS011;3827;49.928;8.548;2022-07-29T01:10:12;3.47;;;1.40;;
7571;SDS011;3827;49.928;8.548;2022-07-29T01:12:40;4.80;;;1.50;;
7571;SDS011;3827;49.928;8.548;2022-07-29T01:15:09;3.53;;;1.43;;
7571;SDS011;3827;49.928;8.548;2022-07-29T01:17:39;3.65;;;1.50;;
7571;SDS011;3827;49.928;8.548;2022-07-29T01:20:12;3.28;;;1.60;;
7571;SDS011;3827;49.928;8.548;2022-07-29T01:23:07;4.60;;;1.63;;
7571;SDS011;3827;49.928;8.548;2022-07-29T01:25:44;2.67;;;1.35;;
7571;SDS011;3827;49.928;8.548;2022-07-29T01:31:11;4.25;;;1.50;;
7571;SDS011;3827;49.928;8.548;2022-07-29T01:33:45;3.33;;;1.58;;
7571;SDS011;3827;49.928;8.548;2022-07-29T01:36:17;3.67;;;1.40;;
7571;SDS011;3827;49.928;8.548;2022-07-29T01:38:50;3.47;;;1.60;;
7571;SDS011;3827;49.928;8.548;2022-07-29T01:41:23;2.55;;;1.75;;
7571;SDS011;3827;49.928;8.548;2022-07-29T01:43:54;3.00;;;1.65;;
7571;SDS011;3827;49.928;8.548;2022-07-29T01:46:24;4.60;;;1.70;;
7571;SDS011;3827;49.928;8.548;2022-07-29T01:48:56;3.67;;;1.70;;
7571;SDS011;3827;49.928;8.548;2022-07-29T01:51:29;3.50;;;1.53;;
7571;SDS011;3827;49.928;8.548;2022-07-29T01:54:02;3.20;;;1.92;;
7571;SDS011;3827;49.928;8.548;2022-07-29T01:56:33;3.00;;;1.50;;
7571;SDS011;3827;49.928;8.548;2022-07-29T01:59:04;3.27;;;1.70;;
7571;SDS011;3827;49.928;8.548;2022-07-29T02:01:34;5.10;;;1.80;;
7571;SDS011;3827;49.928;8.548;2022-07-29T02:04:02;3.28;;;1.85;;
7571;SDS011;3827;49.928;8.548;2022-07-29T02:06:31;3.50;;;1.80;;
7571;SDS011;3827;49.928;8.548;2022-07-29T02:09:02;4.68;;;1.77;;
7571;SDS011;3827;49.928;8.548;2022-07-29T02:11:29;3.22;;;1.70;;
7571;SDS011;3827;49.928;8.548;2022-07-29T02:13:59;5.23;;;1.80;;
7571;SDS011;3827;49.928;8.548;2022-07-29T02:16:30;2.20;;;1.98;;
7571;SDS011;3827;49.928;8.548;2022-07-29T02:18:58;3.13;;;1.70;;
7571;SDS011;3827;49.928;8.548;2022-07-29T02:21:28;3.72;;;1.77;;
7571;SDS011;3827;49.928;8.548;2022-07-29T02:23:57;2.30;;;1.67;;
7571;SDS011;3827;49.928;8.548;2022-07-29T02:26:26;3.90;;;1.65;;
7571;SDS011;3827;49.928;8.548;2022-07-29T02:28:56;4.93;;;1.75;;
7571;SDS011;3827;49.928;8.548;2022-07-29T02:31:25;4.75;;;2.00;;
7571;SDS011;3827;49.928;8.548;2022-07-29T02:33:57;2.95;;;1.77;;
7571;SDS011;3827;49.928;8.548;2022-07-29T02:36:25;3.90;;;1.85;;
7571;SDS011;3827;49.928;8.548;2022-07-29T02:38:54;2.63;;;1.70;;
7571;SDS011;3827;49.928;8.548;2022-07-29T02:41:26;5.43;;;1.63;;
7571;SDS011;3827;49.928;8.548;2022-07-29T02:43:55;4.28;;;2.15;;
7571;SDS011;3827;49.928;8.548;2022-07-29T02:46:25;2.90;;;2.00;;
7571;SDS011;3827;49.928;8.548;2022-07-29T02:49:00;4.67;;;1.50;;
7571;SDS011;3827;49.928;8.548;2022-07-29T02:51:32;2.53;;;1.90;;
7571;SDS011;3827;49.928;8.548;2022-07-29T02:54:05;2.60;;;1.83;;
7571;SDS011;3827;49.928;8.548;2022-07-29T02:56:35;3.33;;;1.92;;
7571;SDS011;3827;49.928;8.548;2022-07-29T02:59:06;3.45;;;1.65;;
7571;SDS011;3827;49.928;8.548;2022-07-29T03:01:36;2.28;;;1.80;;
7571;SDS011;3827;49.928;8.548;2022-07-29T03:04:09;3.03;;;2.05;;
7571;SDS011;3827;49.928;8.548;2022-07-29T03:06:37;2.97;;;1.80;;
7571;SDS011;3827;49.928;8.548;2022-07-29T03:09:07;2.67;;;2.20;;
7571;SDS011;3827;49.928;8.548;2022-07-29T03:11:34;3.88;;;2.05;;
7571;SDS011;3827;49.928;8.548;2022-07-29T03:14:02;5.20;;;1.80;;
7571;SDS011;3827;49.928;8.548;2022-07-29T03:16:30;4.80;;;1.80;;
7571;SDS011;3827;49.928;8.548;2022-07-29T03:19:01;4.15;;;2.10;;
7571;SDS011;3827;49.928;8.548;2022-07-29T03:21:31;2.63;;;1.75;;
7571;SDS011;3827;49.928;8.548;2022-07-29T03:23:58;2.67;;;2.00;;
7571;SDS011;3827;49.928;8.548;2022-07-29T03:26:25;2.30;;;1.70;;
7571;SDS011;3827;49.928;8.548;2022-07-29T03:28:52;3.70;;;1.85;;
7571;SDS011;3827;49.928;8.548;2022-07-29T03:31:19;3.88;;;2.25;;
7571;SDS011;3827;49.928;8.548;2022-07-29T03:33:45;3.27;;;1.90;;
7571;SDS011;3827;49.928;8.548;2022-07-29T03:36:12;4.15;;;1.85;;
7571;SDS011;3827;49.928;8.548;2022-07-29T03:38:40;2.23;;;1.80;;
7571;SDS011;3827;49.928;8.548;2022-07-29T03:41:11;2.45;;;1.75;;
7571;SDS011;3827;49.928;8.548;2022-07-29T03:43:39;3.80;;;1.97;;
7571;SDS011;3827;49.928;8.548;2022-07-29T03:46:08;4.22;;;2.00;;
7571;SDS011;3827;49.928;8.548;2022-07-29T03:48:39;3.23;;;2.03;;
7571;SDS011;3827;49.928;8.548;2022-07-29T03:51:12;4.38;;;2.08;;
7571;SDS011;3827;49.928;8.548;2022-07-29T03:53:40;3.28;;;1.90;;
7571;SDS011;3827;49.928;8.548;2022-07-29T03:56:08;2.65;;;1.92;;
7571;SDS011;3827;49.928;8.548;2022-07-29T03:58:36;3.33;;;2.05;;
7571;SDS011;3827;49.928;8.548;2022-07-29T04:01:05;4.03;;;2.22;;
7571;SDS011;3827;49.928;8.548;2022-07-29T04:03:33;4.63;;;2.08;;
7571;SDS011;3827;49.928;8.548;2022-07-29T04:06:01;4.90;;;2.10;;
7571;SDS011;3827;49.928;8.548;2022-07-29T04:08:30;3.17;;;2.00;;
7571;SDS011;3827;49.928;8.548;2022-07-29T04:10:59;3.80;;;2.00;;
7571;SDS011;3827;49.928;8.548;2022-07-29T04:13:26;4.70;;;2.40;;
7571;SDS011;3827;49.928;8.548;2022-07-29T04:15:53;3.83;;;2.10;;
7571;SDS011;3827;49.928;8.548;2022-07-29T04:18:20;2.95;;;1.83;;
7571;SDS011;3827;49.928;8.548;2022-07-29T04:20:47;3.47;;;1.85;;
7571;SDS011;3827;49.928;8.548;2022-07-29T04:23:13;5.38;;;2.28;;
7571;SDS011;3827;49.928;8.548;2022-07-29T04:25:40;2.53;;;2.00;;
7571;SDS011;3827;49.928;8.548;2022-07-29T04:28:09;3.25;;;2.05;;
7571;SDS011;3827;49.928;8.548;2022-07-29T04:30:37;4.72;;;2.00;;
7571;SDS011;3827;49.928;8.548;2022-07-29T04:33:04;4.30;;;2.17;;
7571;SDS011;3827;49.928;8.548;2022-07-29T04:35:33;3.75;;;1.88;;
7571;SDS011;3827;49.928;8.548;2022-07-29T04:38:01;5.70;;;2.00;;
7571;SDS011;3827;49.928;8.548;2022-07-29T04:40:28;3.00;;;1.80;;
7571;SDS011;3827;49.928;8.548;2022-07-29T04:42:55;6.80;;;1.80;;
7571;SDS011;3827;49.928;8.548;2022-07-29T04:45:23;4.35;;;1.80;;
7571;SDS011;3827;49.928;8.548;2022-07-29T04:47:51;2.00;;;1.80;;
7571;SDS011;3827;49.928;8.548;2022-07-29T04:50:18;6.03;;;2.28;;
7571;SDS011;3827;49.928;8.548;2022-07-29T04:52:44;5.55;;;2.13;;
7571;SDS011;3827;49.928;8.548;2022-07-29T04:55:11;2.78;;;2.00;;
7571;SDS011;3827;49.928;8.548;2022-07-29T04:57:38;4.20;;;2.00;;
7571;SDS011;3827;49.928;8.548;2022-07-29T05:00:06;3.67;;;2.00;;
7571;SDS011;3827;49.928;8.548;2022-07-29T05:02:35;5.40;;;2.40;;
7571;SDS011;3827;49.928;8.548;2022-07-29T05:05:02;2.20;;;1.77;;
7571;SDS011;3827;49.928;8.548;2022-07-29T05:07:29;4.75;;;2.08;;
7571;SDS011;3827;49.928;8.548;2022-07-29T05:09:56;3.38;;;2.00;;
7571;SDS011;3827;49.928;8.548;2022-07-29T05:12:23;5.88;;;2.03;;
7571;SDS011;3827;49.928;8.548;2022-07-29T05:14:50;3.63;;;1.90;;
7571;SDS011;3827;49.928;8.548;2022-07-29T05:17:17;4.77;;;1.80;;
7571;SDS011;3827;49.928;8.548;2022-07-29T05:19:45;2.83;;;1.77;;
7571;SDS011;3827;49.928;8.548;2022-07-29T05:22:12;5.05;;;2.00;;
7571;SDS011;3827;49.928;8.548;2022-07-29T05:24:39;3.00;;;1.92;;
7571;SDS011;3827;49.928;8.548;2022-07-29T05:27:05;2.72;;;2.00;;
7571;SDS011;3827;49.928;8.548;2022-07-29T05:29:32;3.80;;;1.85;;
7571;SDS011;3827;49.928;8.548;2022-07-29T05:31:59;3.97;;;1.80;;
7571;SDS011;3827;49.928;8.548;2022-07-29T05:34:26;2.58;;;2.00;;
7571;SDS011;3827;49.928;8.548;2022-07-29T05:36:54;2.70;;;1.92;;
7571;SDS011;3827;49.928;8.548;2022-07-29T05:39:21;5.03;;;2.30;;
7571;SDS011;3827;49.928;8.548;2022-07-29T05:41:48;4.57;;;2.20;;
7571;SDS011;3827;49.928;8.548;2022-07-29T05:44:15;7.18;;;2.10;;
7571;SDS011;3827;49.928;8.548;2022-07-29T05:46:42;4.35;;;2.00;;
7571;SDS011;3827;49.928;8.548;2022-07-29T05:49:08;3.25;;;2.10;;
7571;SDS011;3827;49.928;8.548;2022-07-29T05:51:35;6.32;;;2.35;;
7571;SDS011;3827;49.928;8.548;2022-07-29T05:54:03;5.72;;;1.83;;
7571;SDS011;3827;49.928;8.548;2022-07-29T05:56:30;4.57;;;2.00;;
7571;SDS011;3827;49.928;8.548;2022-07-29T05:58:57;2.92;;;1.92;;
7571;SDS011;3827;49.928;8.548;2022-07-29T06:01:24;3.60;;;1.83;;
7571;SDS011;3827;49.928;8.548;2022-07-29T06:03:51;2.67;;;1.98;;
7571;SDS011;3827;49.928;8.548;2022-07-29T06:06:18;3.53;;;2.00;;
7571;SDS011;3827;49.928;8.548;2022-07-29T06:08:45;3.73;;;2.00;;
7571;SDS011;3827;49.928;8.548;2022-07-29T06:11:13;3.65;;;1.90;;
7571;SDS011;3827;49.928;8.548;2022-07-29T06:13:39;4.72;;;2.10;;
7571;SDS011;3827;49.928;8.548;2022-07-29T06:16:06;4.35;;;1.88;;
7571;SDS011;3827;49.928;8.548;2022-07-29T06:18:33;3.90;;;2.00;;
7571;SDS011;3827;49.928;8.548;2022-07-29T06:21:00;7.03;;;2.38;;
7571;SDS011;3827;49.928;8.548;2022-07-29T06:23:27;3.80;;;2.00;;
7571;SDS011;3827;49.928;8.548;2022-07-29T06:25:54;5.63;;;2.03;;
7571;SDS011;3827;49.928;8.548;2022-07-29T06:28:22;3.00;;;2.08;;
7571;SDS011;3827;49.928;8.548;2022-07-29T06:30:48;4.68;;;2.00;;
7571;SDS011;3827;49.928;8.548;2022-07-29T06:33:16;5.28;;;1.85;;
7571;SDS011;3827;49.928;8.548;2022-07-29T06:35:43;4.97;;;2.10;;
7571;SDS011;3827;49.928;8.548;2022-07-29T06:38:12;4.03;;;2.25;;
7571;SDS011;3827;49.928;8.548;2022-07-29T06:40:40;3.42;;;2.15;;
7571;SDS011;3827;49.928;8.548;2022-07-29T06:43:27;6.40;;;2.40;;
7571;SDS011;3827;49.928;8.548;2022-07-29T06:45:58;4.63;;;2.20;;
7571;SDS011;3827;49.928;8.548;2022-07-29T06:48:28;3.72;;;2.10;;
7571;SDS011;3827;49.928;8.548;2022-07-29T06:50:55;4.40;;;2.00;;
7571;SDS011;3827;49.928;8.548;2022-07-29T06:53:22;4.75;;;2.10;;
7571;SDS011;3827;49.928;8.548;2022-07-29T06:55:49;4.03;;;2.25;;
7571;SDS011;3827;49.928;8.548;2022-07-29T06:58:16;6.10;;;2.38;;
7571;SDS011;3827;49.928;8.548;2022-07-29T07:00:46;5.57;;;2.55;;
7571;SDS011;3827;49.928;8.548;2022-07-29T07:03:14;3.90;;;1.85;;
7571;SDS011;3827;49.928;8.548;2022-07-29T07:05:41;6.32;;;2.40;;
7571;SDS011;3827;49.928;8.548;2022-07-29T07:08:07;4.40;;;2.40;;
7571;SDS011;3827;49.928;8.548;2022-07-29T07:10:34;4.60;;;2.08;;
7571;SDS011;3827;49.928;8.548;2022-07-29T07:13:01;4.43;;;2.17;;
7571;SDS011;3827;49.928;8.548;2022-07-29T07:15:30;4.20;;;2.50;;
7571;SDS011;3827;49.928;8.548;2022-07-29T07:17:58;5.63;;;2.40;;
7571;SDS011;3827;49.928;8.548;2022-07-29T07:20:25;4.70;;;2.22;;
7571;SDS011;3827;49.928;8.548;2022-07-29T07:22:51;6.40;;;2.78;;
7571;SDS011;3827;49.928;8.548;2022-07-29T07:25:18;3.72;;;2.63;;
7571;SDS011;3827;49.928;8.548;2022-07-29T07:27:45;3.55;;;2.35;;
7571;SDS011;3827;49.928;8.548;2022-07-29T07:30:12;4.05;;;2.20;;
7571;SDS011;3827;49.928;8.548;2022-07-29T07:32:39;5.93;;;2.70;;
7571;SDS011;3827;49.928;8.548;2022-07-29T07:35:08;3.90;;;2.20;;
7571;SDS011;3827;49.928;8.548;2022-07-29T07:37:35;4.32;;;2.58;;
7571;SDS011;3827;49.928;8.548;2022-07-29T07:40:03;4.20;;;2.28;;
7571;SDS011;3827;49.928;8.548;2022-07-29T07:42:30;4.78;;;2.47;;
7571;SDS011;3827;49.928;8.548;2022-07-29T07:44:57;3.75;;;2.20;;
7571;SDS011;3827;49.928;8.548;2022-07-29T07:47:24;5.80;;;2.60;;
7571;SDS011;3827;49.928;8.548;2022-07-29T07:49:51;4.50;;;2.67;;
7571;SDS011;3827;49.928;8.548;2022-07-29T07:52:20;5.10;;;2.65;;
7571;SDS011;3827;49.928;8.548;2022-07-29T07:54:48;5.90;;;2.63;;
7571;SDS011;3827;49.928;8.548;2022-07-29T07:57:15;4.28;;;2.30;;
7571;SDS011;3827;49.928;8.548;2022-07-29T07:59:43;5.82;;;2.33;;
7571;SDS011;3827;49.928;8.548;2022-07-29T08:02:09;5.20;;;2.40;;
7571;SDS011;3827;49.928;8.548;2022-07-29T08:04:37;5.97;;;2.30;;
7571;SDS011;3827;49.928;8.548;2022-07-29T08:07:05;3.53;;;2.58;;
7571;SDS011;3827;49.928;8.548;2022-07-29T08:09:34;6.00;;;2.50;;
7571;SDS011;3827;49.928;8.548;2022-07-29T08:12:02;4.95;;;2.50;;
7571;SDS011;3827;49.928;8.548;2022-07-29T08:14:30;4.97;;;2.40;;
7571;SDS011;3827;49.928;8.548;2022-07-29T08:16:58;4.80;;;2.30;;
7571;SDS011;3827;49.928;8.548;2022-07-29T08:19:25;4.57;;;2.63;;
7571;SDS011;3827;49.928;8.548;2022-07-29T08:21:52;3.40;;;2.60;;
7571;SDS011;3827;49.928;8.548;2022-07-29T08:24:19;6.35;;;2.50;;
7571;SDS011;3827;49.928;8.548;2022-07-29T08:27:05;3.33;;;2.50;;
7571;SDS011;3827;49.928;8.548;2022-07-29T08:29:32;5.25;;;2.50;;
7571;SDS011;3827;49.928;8.548;2022-07-29T08:31:59;3.40;;;2.40;;
7571;SDS011;3827;49.928;8.548;2022-07-29T08:34:26;3.13;;;2.00;;
7571;SDS011;3827;49.928;8.548;2022-07-29T08:36:53;4.85;;;2.50;;
7571;SDS011;3827;49.928;8.548;2022-07-29T08:39:21;4.95;;;2.25;;
7571;SDS011;3827;49.928;8.548;2022-07-29T08:41:48;5.38;;;2.70;;
7571;SDS011;3827;49.928;8.548;2022-07-29T08:44:17;5.10;;;2.45;;
7571;SDS011;3827;49.928;8.548;2022-07-29T08:46:44;6.93;;;3.03;;
7571;SDS011;3827;49.928;8.548;2022-07-29T08:49:11;3.57;;;2.40;;
7571;SDS011;3827;49.928;8.548;2022-07-29T08:51:38;2.83;;;2.50;;
7571;SDS011;3827;49.928;8.548;2022-07-29T08:54:07;4.57;;;2.45;;
7571;SDS011;3827;49.928;8.548;2022-07-29T08:56:35;3.83;;;2.63;;
7571;SDS011;3827;49.928;8.548;2022-07-29T08:59:03;5.72;;;2.58;;
7571;SDS011;3827;49.928;8.548;2022-07-29T09:01:33;6.35;;;2.50;;
7571;SDS011;3827;49.928;8.548;2022-07-29T09:04:04;6.45;;;2.20;;
7571;SDS011;3827;49.928;8.548;2022-07-29T09:06:35;2.90;;;2.25;;
7571;SDS011;3827;49.928;8.548;2022-07-29T09:09:05;3.10;;;2.47;;
7571;SDS011;3827;49.928;8.548;2022-07-29T09:11:34;5.97;;;2.47;;
7571;SDS011;3827;49.928;8.548;2022-07-29T09:14:01;2.58;;;2.10;;
7571;SDS011;3827;49.928;8.548;2022-07-29T09:19:22;3.60;;;2.40;;
7571;SDS011;3827;49.928;8.548;2022-07-29T09:21:55;4.03;;;2.60;;
7571;SDS011;3827;49.928;8.548;2022-07-29T09:24:22;3.10;;;2.30;;
7571;SDS011;3827;49.928;8.548;2022-07-29T09:26:49;2.85;;;2.20;;
7571;SDS011;3827;49.928;8.548;2022-07-29T09:29:16;2.55;;;2.20;;
7571;SDS011;3827;49.928;8.548;2022-07-29T09:31:45;4.05;;;2.25;;
7571;SDS011;3827;49.928;8.548;2022-07-29T09:34:13;4.72;;;2.30;;
7571;SDS011;3827;49.928;8.548;2022-07-29T09:36:43;3.60;;;2.80;;
7571;SDS011;3827;49.928;8.548;2022-07-29T09:39:11;6.00;;;2.75;;
7571;SDS011;3827;49.928;8.548;2022-07-29T09:41:46;5.30;;;2.75;;
7571;SDS011;3827;49.928;8.548;2022-07-29T09:44:14;3.35;;;2.67;;
7571;SDS011;3827;49.928;8.548;2022-07-29T09:46:52;3.30;;;2.35;;
7571;SDS011;3827;49.928;8.548;2022-07-29T09:49:23;4.35;;;2.55;;
7571;SDS011;3827;49.928;8.548;2022-07-29T09:52:02;3.03;;;2.50;;
7571;SDS011;3827;49.928;8.548;2022-07-29T09:54:31;5.80;;;2.55;;
7571;SDS011;3827;49.928;8.548;2022-07-29T09:57:02;3.60;;;2.45;;
7571;SDS011;3827;49.928;8.548;2022-07-29T09:59:30;3.05;;;2.42;;
7571;SDS011;3827;49.928;8.548;2022-07-29T10:01:57;4.35;;;2.80;;
7571;SDS011;3827;49.928;8.548;2022-07-29T10:04:35;4.55;;;2.47;;
7571;SDS011;3827;49.928;8.548;2022-07-29T10:07:05;6.80;;;2.72;;
7571;SDS011;3827;49.928;8.548;2022-07-29T10:09:33;3.20;;;2.65;;
7571;SDS011;3827;49.928;8.548;2022-07-29T10:12:08;3.42;;;2.67;;
7571;SDS011;3827;49.928;8.548;2022-07-29T10:14:36;3.35;;;2.33;;
7571;SDS011;3827;49.928;8.548;2022-07-29T10:17:04;3.40;;;2.53;;
7571;SDS011;3827;49.928;8.548;2022-07-29T10:19:32;6.10;;;2.53;;
7571;SDS011;3827;49.928;8.548;2022-07-29T10:22:01;4.55;;;2.58;;
7571;SDS011;3827;49.928;8.548;2022-07-29T10:24:35;2.30;;;2.10;;
7571;SDS011;3827;49.928;8.548;2022-07-29T10:27:04;2.97;;;2.28;;
7571;SDS011;3827;49.928;8.548;2022-07-29T10:29:31;2.87;;;2.20;;
7571;SDS011;3827;49.928;8.548;2022-07-29T10:32:05;3.40;;;2.50;;
7571;SDS011;3827;49.928;8.548;2022-07-29T10:37:37;4.93;;;2.17;;
7571;SDS011;3827;49.928;8.548;2022-07-29T10:40:21;3.30;;;2.22;;
7571;SDS011;3827;49.928;8.548;2022-07-29T10:43:14;3.20;;;2.10;;
7571;SDS011;3827;49.928;8.548;2022-07-29T10:45:44;2.85;;;2.53;;
7571;SDS011;3827;49.928;8.548;2022-07-29T10:48:13;3.13;;;2.28;;
7571;SDS011;3827;49.928;8.548;2022-07-29T10:50:52;2.75;;;2.20;;
7571;SDS011;3827;49.928;8.548;2022-07-29T10:53:20;2.55;;;2.35;;
7571;SDS011;3827;49.928;8.548;2022-07-29T10:55:49;2.58;;;2.38;;
7571;SDS011;3827;49.928;8.548;2022-07-29T10:58:18;4.60;;;2.60;;
7571;SDS011;3827;49.928;8.548;2022-07-29T11:00:46;3.67;;;2.40;;
7571;SDS011;3827;49.928;8.548;2022-07-29T11:06:10;2.80;;;2.30;;
7571;SDS011;3827;49.928;8.548;2022-07-29T11:08:37;2.53;;;2.20;;
7571;SDS011;3827;49.928;8.548;2022-07-29T11:14:06;3.55;;;2.65;;
7571;SDS011;3827;49.928;8.548;2022-07-29T11:19:27;3.90;;;2.60;;
7571;SDS011;3827;49.928;8.548;2022-07-29T11:21:54;3.03;;;2.30;;
7571;SDS011;3827;49.928;8.548;2022-07-29T11:24:21;5.20;;;2.70;;
7571;SDS011;3827;49.928;8.548;2022-07-29T11:27:10;3.97;;;2.70;;
7571;SDS011;3827;49.928;8.548;2022-07-29T11:29:48;4.03;;;2.42;;
7571;SDS011;3827;49.928;8.548;2022-07-29T11:32:20;3.08;;;2.38;;
7571;SDS011;3827;49.928;8.548;2022-07-29T11:34:48;2.75;;;2.42;;
7571;SDS011;3827;49.928;8.548;2022-07-29T11:37:22;3.50;;;2.67;;
7571;SDS011;3827;49.928;8.548;2022-07-29T11:40:12;2.60;;;2.30;;
7571;SDS011;3827;49.928;8.548;2022-07-29T11:42:46;2.72;;;2.53;;
7571;SDS011;3827;49.928;8.548;2022-07-29T11:45:15;2.83;;;2.63;;
7571;SDS011;3827;49.928;8.548;2022-07-29T11:47:52;2.80;;;2.40;;
7571;SDS011;3827;49.928;8.548;2022-07-29T11:50:26;5.90;;;2.70;;
7571;SDS011;3827;49.928;8.548;2022-07-29T11:52:57;5.55;;;2.42;;
7571;SDS011;3827;49.928;8.548;2022-07-29T11:55:27;3.13;;;2.83;;
7571;SDS011;3827;49.928;8.548;2022-07-29T11:57:58;3.35;;;2.40;;
7571;SDS011;3827;49.928;8.548;2022-07-29T12:00:27;2.70;;;2.50;;
7571;SDS011;3827;49.928;8.548;2022-07-29T12:02:57;4.27;;;2.70;;
7571;SDS011;3827;49.928;8.548;2022-07-29T12:05:35;3.20;;;2.38;;
7571;SDS011;3827;49.928;8.548;2022-07-29T12:08:07;4.43;;;2.55;;
7571;SDS011;3827;49.928;8.548;2022-07-29T12:10:41;4.55;;;2.85;;
7571;SDS011;3827;49.928;8.548;2022-07-29T12:13:10;5.03;;;2.58;;
7571;SDS011;3827;49.928;8.548;2022-07-29T12:15:38;4.03;;;2.80;;
7571;SDS011;3827;49.928;8.548;2022-07-29T12:18:15;2.55;;;2.35;;
7571;SDS011;3827;49.928;8.548;2022-07-29T12:20:45;4.50;;;2.87;;
7571;SDS011;3827;49.928;8.548;2022-07-29T12:23:13;3.28;;;2.58;;
7571;SDS011;3827;49.928;8.548;2022-07-29T12:25:41;5.78;;;2.65;;
7571;SDS011;3827;49.928;8.548;2022-07-29T12:28:11;2.77;;;2.43;;
7571;SDS011;3827;49.928;8.548;2022-07-29T12:30:41;4.47;;;2.50;;
7571;SDS011;3827;49.928;8.548;2022-07-29T12:33:14;5.60;;;3.00;;
7571;SDS011;3827;49.928;8.548;2022-07-29T12:35:43;4.43;;;2.85;;
7571;SDS011;3827;49.928;8.548;2022-07-29T12:38:12;3.63;;;2.60;;
7571;SDS011;3827;49.928;8.548;2022-07-29T12:40:39;3.35;;;2.50;;
7571;SDS011;3827;49.928;8.548;2022-07-29T12:43:11;3.53;;;2.38;;
7571;SDS011;3827;49.928;8.548;2022-07-29T12:45:42;3.35;;;2.45;;
7571;SDS011;3827;49.928;8.548;2022-07-29T12:48:10;2.95;;;2.50;;
7571;SDS011;3827;49.928;8.548;2022-07-29T12:50:51;3.95;;;2.65;;
7571;SDS011;3827;49.928;8.548;2022-07-29T12:53:19;7.25;;;2.83;;
7571;SDS011;3827;49.928;8.548;2022-07-29T12:55:47;2.87;;;2.43;;
7571;SDS011;3827;49.928;8.548;2022-07-29T12:58:27;2.92;;;2.40;;
7571;SDS011;3827;49.928;8.548;2022-07-29T13:01:03;2.72;;;2.42;;
7571;SDS011;3827;49.928;8.548;2022-07-29T13:03:41;4.35;;;2.47;;
7571;SDS011;3827;49.928;8.548;2022-07-29T13:08:59;4.78;;;2.72;;
7571;SDS011;3827;49.928;8.548;2022-07-29T13:11:28;2.80;;;2.60;;
7571;SDS011;3827;49.928;8.548;2022-07-29T13:13:57;4.20;;;2.53;;
7571;SDS011;3827;49.928;8.548;2022-07-29T13:16:24;2.58;;;2.28;;
7571;SDS011;3827;49.928;8.548;2022-07-29T13:19:02;2.67;;;2.40;;
7571;SDS011;3827;49.928;8.548;2022-07-29T13:21:34;4.22;;;2.40;;
7571;SDS011;3827;49.928;8.548;2022-07-29T13:24:01;3.37;;;2.30;;
7571;SDS011;3827;49.928;8.548;2022-07-29T13:26:28;4.60;;;2.85;;
7571;SDS011;3827;49.928;8.548;2022-07-29T13:28:54;4.10;;;2.55;;
7571;SDS011;3827;49.928;8.548;2022-07-29T13:31:23;2.90;;;2.50;;
7571;SDS011;3827;49.928;8.548;2022-07-29T13:33:50;4.40;;;2.53;;
7571;SDS011;3827;49.928;8.548;2022-07-29T13:36:17;5.32;;;2.80;;
7571;SDS011;3827;49.928;8.548;2022-07-29T13:38:43;7.07;;;2.65;;
7571;SDS011;3827;49.928;8.548;2022-07-29T13:41:10;3.90;;;2.53;;
7571;SDS011;3827;49.928;8.548;2022-07-29T13:43:37;3.88;;;2.50;;
7571;SDS011;3827;49.928;8.548;2022-07-29T13:46:04;4.07;;;2.65;;
7571;SDS011;3827;49.928;8.548;2022-07-29T13:48:32;2.50;;;2.30;;
7571;SDS011;3827;49.928;8.548;2022-07-29T13:50:59;4.47;;;2.60;;
7571;SDS011;3827;49.928;8.548;2022-07-29T13:53:26;4.15;;;2.47;;
7571;SDS011;3827;49.928;8.548;2022-07-29T13:55:53;2.80;;;2.50;;
7571;SDS011;3827;49.928;8.548;2022-07-29T13:58:20;2.78;;;2.22;;
7571;SDS011;3827;49.928;8.548;2022-07-29T14:00:47;3.80;;;2.60;;
7571;SDS011;3827;49.928;8.548;2022-07-29T14:03:14;3.03;;;2.83;;
7571;SDS011;3827;49.928;8.548;2022-07-29T14:05:43;4.18;;;2.58;;
7571;SDS011;3827;49.928;8.548;2022-07-29T14:08:10;2.65;;;1.95;;
7571;SDS011;3827;49.928;8.548;2022-07-29T14:10:37;3.03;;;2.20;;
7571;SDS011;3827;49.928;8.548;2022-07-29T14:13:04;2.72;;;2.38;;
7571;SDS011;3827;49.928;8.548;2022-07-29T14:15:31;3.75;;;2.50;;
7571;SDS011;3827;49.928;8.548;2022-07-29T14:17:58;3.15;;;2.55;;
7571;SDS011;3827;49.928;8.548;2022-07-29T14:20:25;2.63;;;2.10;;
7571;SDS011;3827;49.928;8.548;2022-07-29T14:22:54;2.90;;;2.28;;
7571;SDS011;3827;49.928;8.548;2022-07-29T14:25:22;2.65;;;2.13;;
7571;SDS011;3827;49.928;8.548;2022-07-29T14:27:49;2.75;;;2.38;;
7571;SDS011;3827;49.928;8.548;2022-07-29T14:30:18;3.17;;;2.30;;
7571;SDS011;3827;49.928;8.548;2022-07-29T14:32:44;2.92;;;2.55;;
7571;SDS011;3827;49.928;8.548;2022-07-29T14:35:11;4.20;;;2.57;;
7571;SDS011;3827;49.928;8.548;2022-07-29T14:37:38;5.13;;;2.60;;
7571;SDS011;3827;49.928;8.548;2022-07-29T14:40:07;4.70;;;2.78;;
7571;SDS011;3827;49.928;8.548;2022-07-29T14:42:35;3.53;;;2.40;;
7571;SDS011;3827;49.928;8.548;2022-07-29T14:45:03;4.75;;;2.60;;
7571;SDS011;3827;49.928;8.548;2022-07-29T14:47:31;5.55;;;2.55;;
7571;SDS011;3827;49.928;8.548;2022-07-29T14:49:58;4.00;;;2.78;;
7571;SDS011;3827;49.928;8.548;2022-07-29T14:52:24;7.70;;;3.10;;
7571;SDS011;3827;49.928;8.548;2022-07-29T14:54:51;4.27;;;2.33;;
7571;SDS011;3827;49.928;8.548;2022-07-29T14:57:19;8.10;;;2.63;;
7571;SDS011;3827;49.928;8.548;2022-07-29T14:59:46;5.57;;;2.72;;
7571;SDS011;3827;49.928;8.548;2022-07-29T15:02:13;3.65;;;2.50;;
7571;SDS011;3827;49.928;8.548;2022-07-29T15:04:40;2.58;;;2.38;;
7571;SDS011;3827;49.928;8.548;2022-07-29T15:07:07;4.18;;;2.40;;
7571;SDS011;3827;49.928;8.548;2022-07-29T15:09:34;2.42;;;2.10;;
7571;SDS011;3827;49.928;8.548;2022-07-29T15:12:01;3.17;;;2.40;;
7571;SDS011;3827;49.928;8.548;2022-07-29T15:14:30;3.67;;;2.40;;
7571;SDS011;3827;49.928;8.548;2022-07-29T15:16:57;6.93;;;2.60;;
7571;SDS011;3827;49.928;8.548;2022-07-29T15:19:24;7.88;;;2.53;;
7571;SDS011;3827;49.928;8.548;2022-07-29T15:21:51;3.10;;;2.40;;
7571;SDS011;3827;49.928;8.548;2022-07-29T15:24:18;3.60;;;2.50;;
7571;SDS011;3827;49.928;8.548;2022-07-29T15:26:45;3.13;;;2.42;;
7571;SDS011;3827;49.928;8.548;2022-07-29T15:29:12;2.92;;;2.28;;
7571;SDS011;3827;49.928;8.548;2022-07-29T15:31:41;3.05;;;2.08;;
7571;SDS011;3827;49.928;8.548;2022-07-29T15:34:08;3.10;;;2.17;;
7571;SDS011;3827;49.928;8.548;2022-07-29T15:36:35;3.25;;;2.30;;
7571;SDS011;3827;49.928;8.548;2022-07-29T15:39:02;5.17;;;2.90;;
7571;SDS011;3827;49.928;8.548;2022-07-29T15:41:29;2.27;;;1.90;;
7571;SDS011;3827;49.928;8.548;2022-07-29T15:43:56;3.75;;;1.88;;
7571;SDS011;3827;49.928;8.548;2022-07-29T15:46:22;1.98;;;1.50;;